Hebe — A8OH7 — position and weather

sailwx.info

Track history (hours):
 
Tides and Currents Weather Stations Pressure Air Temp Water Temp Dewpoint Dewpoint Depression Visibility Wind Speed Wind Dir Waves Ship Positions

Hebe

Last reported at 2015-Jun-16 09:30 UTC. Time now 2015-Jun-30 12:39 UTC.
Position N 01°16' E 104°13'.
Warning: this ship's position is 14 days out of date.

Length 220 m; draft 9 m.

Type: Ship. MMSI: 636091480.

Date/timePositionNaut miles runAvg speedWind from/ knotsBaromVisibWave heightAir tempDewpointWater temp
2015-Jun-16 09:30N 01°16' E 104°13'1010.9
2015-Jun-16 08:33N 01°15' E 104°03'1110.4
2015-Jun-16 07:29N 01°12' E 103°52'7 7.7
2015-Jun-16 06:33N 01°16' E 103°46'0 0.0
2015-Jun-16 05:23N 01°16' E 103°46'0 0.0
2015-Jun-16 04:23N 01°16' E 103°46'0 0.0
2015-Jun-16 03:29N 01°16' E 103°46'0 0.0
2015-Jun-16 02:25N 01°16' E 103°46'0 0.0
2015-Jun-16 01:28N 01°16' E 103°46'0 0.0
2015-Jun-16 00:09N 01°16' E 103°46'0 0.0
2015-Jun-15 23:30N 01°16' E 103°46'0 0.0
2015-Jun-15 22:26N 01°16' E 103°46'0 0.0
2015-Jun-15 21:32N 01°16' E 103°46'0 0.0
2015-Jun-15 20:10N 01°16' E 103°46'0 0.0
2015-Jun-15 19:16N 01°16' E 103°46'0 0.0
2015-Jun-15 18:22N 01°16' E 103°46'0 0.0
2015-Jun-15 17:33N 01°16' E 103°46'0 0.0
2015-Jun-15 16:06N 01°16' E 103°46'0 0.0
2015-Jun-15 15:29N 01°16' E 103°46'0 0.0
2015-Jun-15 14:29N 01°16' E 103°46'0 0.0
2015-Jun-15 13:32N 01°16' E 103°46'0 0.0
2015-Jun-15 11:22N 01°16' E 103°46'1 1.0
2015-Jun-15 10:34N 01°15' E 103°46'4 3.2
2015-Jun-15 09:25N 01°13' E 103°49'0 0.0
2015-Jun-15 08:31N 01°13' E 103°49'0 0.0
2015-Jun-15 07:33N 01°13' E 103°49'0 0.0
2015-Jun-15 06:24N 01°13' E 103°49'0 0.0
2015-Jun-15 05:29N 01°13' E 103°49'0 0.1
2015-Jun-15 04:20N 01°13' E 103°49'0 0.0
2015-Jun-15 03:13N 01°13' E 103°49'0 0.1
2015-Jun-15 02:28N 01°13' E 103°49'0 0.0
2015-Jun-15 01:25N 01°13' E 103°49'0 0.0
2015-Jun-15 00:15N 01°13' E 103°49'0 0.7
2015-Jun-14 23:33N 01°13' E 103°49'5 1.6
2015-Jun-14 20:33N 01°16' E 103°46'0 0.0
2015-Jun-14 19:26N 01°16' E 103°46'0 0.0
2015-Jun-14 18:20N 01°16' E 103°46'0 0.0
2015-Jun-14 14:30N 01°16' E 103°46'0 0.0
2015-Jun-14 12:29N 01°16' E 103°46'0 0.0
2015-Jun-14 11:08N 01°16' E 103°46'0 0.0
2015-Jun-14 09:10N 01°16' E 103°46'0 0.3
2015-Jun-14 08:13N 01°16' E 103°46'3 4.9
2015-Jun-14 07:33N 01°14' E 103°43'10 8.7
2015-Jun-14 06:24N 01°13' E 103°33'51 1.3
2015-Jun-12 14:05N 01°37' E 102°49'5 9.4
2015-Jun-12 13:33N 01°40' E 102°44'11 9.8
2015-Jun-12 12:29N 01°44' E 102°35'910.2
2015-Jun-12 11:33N 01°48' E 102°26'  
2015-Jun-09 01:33N 01°59' E 102°13'1918.2
2015-Jun-09 00:32N 01°51' E 102°30'1818.7
2015-Jun-08 23:33N 01°43' E 102°47'61 1.7
2015-Jun-07 12:28N 01°12' E 103°40'8 8.2
2015-Jun-07 11:33N 01°16' E 103°46'0 0.0
2015-Jun-07 10:17N 01°16' E 103°46'0 0.0
2015-Jun-07 09:10N 01°16' E 103°46'0 0.0
2015-Jun-07 08:28N 01°16' E 103°46'0 0.0
2015-Jun-07 07:22N 01°16' E 103°46'0 0.0
2015-Jun-07 06:30N 01°16' E 103°46'0 0.0
2015-Jun-07 04:26N 01°16' E 103°46'0 0.1
2015-Jun-07 03:26N 01°16' E 103°46'0 0.0
2015-Jun-07 02:32N 01°16' E 103°46'0 0.0
2015-Jun-07 01:19N 01°16' E 103°46'0 0.0
2015-Jun-06 18:16N 01°16' E 103°46'  
Track history (hours):
 
Tides and Currents Weather Stations Pressure Air Temp Water Temp Dewpoint Dewpoint Depression Visibility Wind Speed Wind Dir Waves Ship Positions

Hebe

Last reported at 2015-Jun-16 09:30 UTC. Time now 2015-Jun-30 12:39 UTC.
Position N 01°16' E 104°13'.
Warning: this ship's position is 14 days out of date.

Length 220 m; draft 9 m.

Type: Ship. MMSI: 636091480.

Date/timePositionNaut miles runAvg speedWind from/ knotsBaromVisibWave heightAir tempDewpointWater temp
2015-Jun-16 09:30N 01°16' E 104°13'1010.9
2015-Jun-16 08:33N 01°15' E 104°03'1110.4
2015-Jun-16 07:29N 01°12' E 103°52'7 7.7
2015-Jun-16 06:33N 01°16' E 103°46'0 0.0
2015-Jun-16 05:23N 01°16' E 103°46'0 0.0
2015-Jun-16 04:23N 01°16' E 103°46'0 0.0
2015-Jun-16 03:29N 01°16' E 103°46'0 0.0
2015-Jun-16 02:25N 01°16' E 103°46'0 0.0
2015-Jun-16 01:28N 01°16' E 103°46'0 0.0
2015-Jun-16 00:09N 01°16' E 103°46'0 0.0
2015-Jun-15 23:30N 01°16' E 103°46'0 0.0
2015-Jun-15 22:26N 01°16' E 103°46'0 0.0
2015-Jun-15 21:32N 01°16' E 103°46'0 0.0
2015-Jun-15 20:10N 01°16' E 103°46'0 0.0
2015-Jun-15 19:16N 01°16' E 103°46'0 0.0
2015-Jun-15 18:22N 01°16' E 103°46'0 0.0
2015-Jun-15 17:33N 01°16' E 103°46'0 0.0
2015-Jun-15 16:06N 01°16' E 103°46'0 0.0
2015-Jun-15 15:29N 01°16' E 103°46'0 0.0
2015-Jun-15 14:29N 01°16' E 103°46'0 0.0
2015-Jun-15 13:32N 01°16' E 103°46'0 0.0
2015-Jun-15 11:22N 01°16' E 103°46'1 1.0
2015-Jun-15 10:34N 01°15' E 103°46'4 3.2
2015-Jun-15 09:25N 01°13' E 103°49'0 0.0
2015-Jun-15 08:31N 01°13' E 103°49'0 0.0
2015-Jun-15 07:33N 01°13' E 103°49'0 0.0
2015-Jun-15 06:24N 01°13' E 103°49'0 0.0
2015-Jun-15 05:29N 01°13' E 103°49'0 0.1
2015-Jun-15 04:20N 01°13' E 103°49'0 0.0
2015-Jun-15 03:13N 01°13' E 103°49'0 0.1
2015-Jun-15 02:28N 01°13' E 103°49'0 0.0
2015-Jun-15 01:25N 01°13' E 103°49'0 0.0
2015-Jun-15 00:15N 01°13' E 103°49'0 0.7
2015-Jun-14 23:33N 01°13' E 103°49'5 1.6
2015-Jun-14 20:33N 01°16' E 103°46'0 0.0
2015-Jun-14 19:26N 01°16' E 103°46'0 0.0
2015-Jun-14 18:20N 01°16' E 103°46'0 0.0
2015-Jun-14 14:30N 01°16' E 103°46'0 0.0
2015-Jun-14 12:29N 01°16' E 103°46'0 0.0
2015-Jun-14 11:08N 01°16' E 103°46'0 0.0
2015-Jun-14 09:10N 01°16' E 103°46'0 0.3
2015-Jun-14 08:13N 01°16' E 103°46'3 4.9
2015-Jun-14 07:33N 01°14' E 103°43'10 8.7
2015-Jun-14 06:24N 01°13' E 103°33'51 1.3
2015-Jun-12 14:05N 01°37' E 102°49'5 9.4
2015-Jun-12 13:33N 01°40' E 102°44'11 9.8
2015-Jun-12 12:29N 01°44' E 102°35'910.2
2015-Jun-12 11:33N 01°48' E 102°26'  
2015-Jun-09 01:33N 01°59' E 102°13'1918.2
2015-Jun-09 00:32N 01°51' E 102°30'1818.7
2015-Jun-08 23:33N 01°43' E 102°47'61 1.7
2015-Jun-07 12:28N 01°12' E 103°40'8 8.2
2015-Jun-07 11:33N 01°16' E 103°46'0 0.0
2015-Jun-07 10:17N 01°16' E 103°46'0 0.0
2015-Jun-07 09:10N 01°16' E 103°46'0 0.0
2015-Jun-07 08:28N 01°16' E 103°46'0 0.0
2015-Jun-07 07:22N 01°16' E 103°46'0 0.0
2015-Jun-07 06:30N 01°16' E 103°46'0 0.0
2015-Jun-07 04:26N 01°16' E 103°46'0 0.1
2015-Jun-07 03:26N 01°16' E 103°46'0 0.0
2015-Jun-07 02:32N 01°16' E 103°46'0 0.0
2015-Jun-07 01:19N 01°16' E 103°46'0 0.0
2015-Jun-06 18:16N 01°16' E 103°46'  

Dump ship's entire track history